createdAt,value
2019-05-15T00:02:28.050Z,8.80
2019-05-15T00:04:58.532Z,8.70
2019-05-15T00:07:29.340Z,8.70
2019-05-15T00:09:59.143Z,8.70
2019-05-15T00:12:28.691Z,8.80
2019-05-15T00:14:58.257Z,8.70
2019-05-15T00:17:28.274Z,8.70
2019-05-15T00:19:58.733Z,8.60
2019-05-15T00:22:29.138Z,8.60
2019-05-15T00:24:58.795Z,8.50
2019-05-15T00:27:28.580Z,8.40
2019-05-15T00:29:58.257Z,8.40
2019-05-15T00:32:28.281Z,8.40
2019-05-15T00:34:58.254Z,8.40
2019-05-15T00:37:28.893Z,8.40
2019-05-15T00:39:59.224Z,8.30
2019-05-15T00:42:28.827Z,8.30
2019-05-15T00:44:58.540Z,8.20
2019-05-15T00:47:28.678Z,8.20
2019-05-15T00:49:58.203Z,8.20
2019-05-15T00:52:28.245Z,8.20
2019-05-15T00:54:58.952Z,8.20
2019-05-15T00:57:28.471Z,8.20
2019-05-15T00:59:58.988Z,8.20
2019-05-15T01:02:28.759Z,8.20
2019-05-15T01:04:58.632Z,8.20
2019-05-15T01:07:28.288Z,8.20
2019-05-15T01:09:57.986Z,8.10
2019-05-15T01:12:29.129Z,8.00
2019-05-15T01:14:58.740Z,8.00
2019-05-15T01:17:29.074Z,8.00
2019-05-15T01:19:58.883Z,8.00
2019-05-15T01:22:28.727Z,7.90
2019-05-15T01:24:58.992Z,7.80
2019-05-15T01:27:29.144Z,7.90
2019-05-15T01:29:58.912Z,7.80
2019-05-15T01:32:28.569Z,7.80
2019-05-15T01:34:58.124Z,7.70
2019-05-15T01:37:28.227Z,7.70
2019-05-15T01:39:58.208Z,7.60
2019-05-15T01:42:28.072Z,7.60
2019-05-15T01:44:58.987Z,7.50
2019-05-15T01:47:28.477Z,7.40
2019-05-15T01:49:58.335Z,7.40
2019-05-15T01:52:28.008Z,7.30
2019-05-15T01:54:58.255Z,7.40
2019-05-15T01:57:28.784Z,7.30
2019-05-15T02:00:00.886Z,7.30
2019-05-15T02:02:29.669Z,7.30
2019-05-15T02:04:59.951Z,7.20
2019-05-15T02:07:29.424Z,7.10
2019-05-15T02:09:59.060Z,7.00
2019-05-15T02:12:28.707Z,7.00
2019-05-15T02:14:58.760Z,7.00
2019-05-15T02:17:28.390Z,7.00
2019-05-15T02:19:58.717Z,7.00
2019-05-15T02:22:28.444Z,7.10
2019-05-15T02:24:59.102Z,7.10
2019-05-15T02:27:29.490Z,7.00
2019-05-15T02:30:15.777Z,7.00
2019-05-15T02:32:30.432Z,7.00
2019-05-15T02:34:59.923Z,6.70
2019-05-15T02:37:29.743Z,6.80
2019-05-15T02:39:59.252Z,6.80
2019-05-15T02:42:29.260Z,6.80
2019-05-15T02:44:58.781Z,6.70
2019-05-15T02:47:29.130Z,6.60
2019-05-15T02:49:59.388Z,6.60
2019-05-15T02:52:29.709Z,6.50
2019-05-15T02:54:59.948Z,6.50
2019-05-15T02:57:30.221Z,6.50
2019-05-15T02:59:59.701Z,6.50
2019-05-15T03:02:29.283Z,6.50
2019-05-15T03:04:59.520Z,6.50
2019-05-15T03:07:29.696Z,6.40
2019-05-15T03:09:59.912Z,6.40
2019-05-15T03:12:29.785Z,6.50
2019-05-15T03:14:59.936Z,6.50
2019-05-15T03:17:29.927Z,6.40
2019-05-15T03:19:59.531Z,6.40
2019-05-15T03:22:29.518Z,6.30
2019-05-15T03:24:59.443Z,6.20
2019-05-15T03:27:30.329Z,6.30
2019-05-15T03:30:00.402Z,6.30
2019-05-15T03:32:41.075Z,6.20
2019-05-15T03:35:04.706Z,6.20
2019-05-15T03:37:34.127Z,6.30
2019-05-15T03:40:04.079Z,6.30
2019-05-15T03:42:33.665Z,6.20
2019-05-15T03:45:03.278Z,6.20
2019-05-15T03:47:32.963Z,6.20
2019-05-15T03:50:02.884Z,6.20
2019-05-15T03:52:32.566Z,6.30
2019-05-15T03:55:02.169Z,6.30
2019-05-15T03:57:31.733Z,6.30
2019-05-15T04:00:01.275Z,6.20
2019-05-15T04:02:30.722Z,6.20
2019-05-15T04:05:01.494Z,6.20
2019-05-15T04:07:31.535Z,6.30
2019-05-15T04:10:01.046Z,6.20
2019-05-15T04:12:30.598Z,6.30
2019-05-15T04:15:00.158Z,6.40
2019-05-15T04:17:29.721Z,6.40
2019-05-15T04:19:59.276Z,6.50
2019-05-15T04:22:29.283Z,6.50
2019-05-15T04:25:39.314Z,6.50
2019-05-15T04:28:11.066Z,6.50
2019-05-15T04:30:59.834Z,6.40
2019-05-15T04:33:29.756Z,6.40
2019-05-15T04:35:59.326Z,6.60
2019-05-15T04:38:29.404Z,6.60
2019-05-15T04:40:59.256Z,6.80
2019-05-15T04:43:31.268Z,6.90
2019-05-15T04:46:02.982Z,6.90
2019-05-15T04:48:31.861Z,6.90
2019-05-15T04:51:01.288Z,7.00
2019-05-15T04:53:33.161Z,7.10
2019-05-15T04:56:04.964Z,7.30
2019-05-15T04:58:34.419Z,7.60
2019-05-15T05:01:08.943Z,9.20
2019-05-15T05:03:39.416Z,10.40
2019-05-15T05:06:09.847Z,11.60
2019-05-15T05:08:40.180Z,12.80
2019-05-15T05:11:10.102Z,13.50
2019-05-15T05:13:39.827Z,14.80
2019-05-15T05:16:09.805Z,15.10
2019-05-15T05:18:41.362Z,16.00
2019-05-15T05:21:10.655Z,16.90
2019-05-15T05:23:40.275Z,17.30
2019-05-15T05:26:11.216Z,17.70
2019-05-15T05:28:40.857Z,17.70
2019-05-15T05:31:13.611Z,18.00
2019-05-15T05:33:41.678Z,18.00
2019-05-15T05:36:11.313Z,18.20
2019-05-15T05:38:40.871Z,18.10
2019-05-15T05:41:10.467Z,18.70
2019-05-15T05:43:40.014Z,18.80
2019-05-15T05:46:09.592Z,18.60
2019-05-15T05:48:39.268Z,18.70
2019-05-15T05:51:09.422Z,19.30
2019-05-15T05:53:39.309Z,19.30
2019-05-15T05:56:09.126Z,19.10
2019-05-15T05:58:39.219Z,18.50
2019-05-15T06:01:09.473Z,18.40
2019-05-15T06:03:39.177Z,19.30
2019-05-15T06:06:09.766Z,20.10
2019-05-15T06:08:39.642Z,19.70
2019-05-15T06:11:09.891Z,19.70
2019-05-15T06:13:39.700Z,19.20
2019-05-15T06:16:09.484Z,19.00
2019-05-15T06:18:39.149Z,19.40
2019-05-15T06:21:09.267Z,18.60
2019-05-15T06:23:45.633Z,18.60
2019-05-15T06:26:10.160Z,18.80
2019-05-15T06:28:39.757Z,19.00
2019-05-15T06:31:09.376Z,18.10
2019-05-15T06:33:38.950Z,18.30
2019-05-15T06:36:09.142Z,18.10
2019-05-15T06:38:39.515Z,17.90
2019-05-15T06:41:09.182Z,17.50
2019-05-15T06:43:39.148Z,16.70
2019-05-15T06:46:09.323Z,15.40
2019-05-15T06:48:38.913Z,14.50
2019-05-15T06:51:09.010Z,13.80
2019-05-15T06:53:38.720Z,13.20
2019-05-15T06:56:08.313Z,12.50
2019-05-15T06:58:38.449Z,12.40
2019-05-15T07:01:08.997Z,12.30
2019-05-15T07:03:39.457Z,12.10
2019-05-15T07:06:09.578Z,11.90
2019-05-15T07:08:39.434Z,11.90
2019-05-15T07:11:09.081Z,11.70
2019-05-15T07:13:38.606Z,11.60
2019-05-15T07:16:08.419Z,11.70
2019-05-15T07:18:39.120Z,11.80
2019-05-15T07:21:10.246Z,11.90
2019-05-15T07:23:39.864Z,12.00
2019-05-15T07:26:09.693Z,11.90
2019-05-15T07:28:39.382Z,11.80
2019-05-15T07:31:11.563Z,11.90
2019-05-15T07:33:43.679Z,12.00
2019-05-15T07:36:11.464Z,12.00
2019-05-15T07:38:40.918Z,12.10
2019-05-15T07:41:10.656Z,12.20
2019-05-15T07:43:40.132Z,12.10
2019-05-15T07:46:09.657Z,12.20
2019-05-15T07:48:39.120Z,12.30
2019-05-15T07:51:11.575Z,12.30
2019-05-15T07:53:39.868Z,12.30
2019-05-15T07:56:12.153Z,12.50
2019-05-15T07:58:41.450Z,12.60
2019-05-15T08:01:10.976Z,12.60
2019-05-15T08:03:55.618Z,12.60
2019-05-15T08:06:11.538Z,12.70
2019-05-15T08:08:41.092Z,12.80
2019-05-15T08:11:20.274Z,12.90
2019-05-15T08:13:41.738Z,13.00
2019-05-15T08:16:11.318Z,13.00
2019-05-15T08:18:40.823Z,13.10
2019-05-15T08:21:10.399Z,13.10
2019-05-15T08:23:39.886Z,13.10
2019-05-15T08:26:09.451Z,13.20
2019-05-15T08:28:38.938Z,13.00
2019-05-15T08:31:10.165Z,13.00
2019-05-15T08:33:39.724Z,13.00
2019-05-15T08:36:09.257Z,13.00
2019-05-15T08:38:38.816Z,13.00
2019-05-15T08:41:11.590Z,13.20
2019-05-15T08:43:39.847Z,13.20
2019-05-15T08:46:09.354Z,13.10
2019-05-15T08:48:39.084Z,13.10
2019-05-15T08:51:08.933Z,13.20
2019-05-15T08:53:38.473Z,13.30
2019-05-15T08:56:08.652Z,13.20
2019-05-15T08:58:38.413Z,13.20
2019-05-15T09:01:09.899Z,13.30
2019-05-15T09:03:39.368Z,13.30
2019-05-15T09:06:09.228Z,13.20
2019-05-15T09:08:39.400Z,13.20
2019-05-15T09:11:09.541Z,13.10
2019-05-15T09:13:43.533Z,13.30
2019-05-15T09:16:10.573Z,13.40
2019-05-15T09:18:40.243Z,13.50
2019-05-15T09:21:09.676Z,13.50
2019-05-15T09:23:39.261Z,13.60
2019-05-15T09:26:09.317Z,13.70
2019-05-15T09:28:40.156Z,13.70
2019-05-15T09:31:09.693Z,13.60
2019-05-15T09:33:39.330Z,13.80
2019-05-15T09:36:09.238Z,13.90
2019-05-15T09:38:39.256Z,13.90
2019-05-15T09:41:09.214Z,13.60
2019-05-15T09:43:41.833Z,13.60
2019-05-15T09:46:10.518Z,13.60
2019-05-15T09:48:40.207Z,13.80
2019-05-15T09:51:09.973Z,13.80
2019-05-15T09:53:39.725Z,13.80
2019-05-15T09:56:09.299Z,13.80
2019-05-15T09:58:38.802Z,13.90
2019-05-15T10:01:08.673Z,14.20
2019-05-15T10:03:39.095Z,14.30
2019-05-15T10:06:09.538Z,14.30
2019-05-15T10:08:39.828Z,14.40
2019-05-15T10:11:09.716Z,14.40
2019-05-15T10:13:39.325Z,14.50
2019-05-15T10:16:09.263Z,14.60
2019-05-15T10:18:39.320Z,14.40
2019-05-15T10:21:09.308Z,14.40
2019-05-15T10:23:40.504Z,14.20
2019-05-15T10:26:14.025Z,14.30
2019-05-15T10:28:41.315Z,14.30
2019-05-15T10:31:10.907Z,14.40
2019-05-15T10:33:40.411Z,14.20
2019-05-15T10:36:10.344Z,14.20
2019-05-15T10:38:39.903Z,14.40
2019-05-15T10:41:15.004Z,14.50
2019-05-15T10:43:46.371Z,14.60
2019-05-15T10:46:13.699Z,14.60
2019-05-15T10:48:43.330Z,14.70
2019-05-15T10:51:12.954Z,14.90
2019-05-15T10:53:42.477Z,15.00
2019-05-15T10:56:11.995Z,15.10
2019-05-15T10:58:41.549Z,15.20
2019-05-15T11:01:11.515Z,15.40
2019-05-15T11:03:41.203Z,15.50
2019-05-15T11:06:11.000Z,15.50
2019-05-15T11:08:40.937Z,15.60
2019-05-15T11:11:10.530Z,15.70
2019-05-15T11:13:40.189Z,15.60
2019-05-15T11:16:09.886Z,15.50
2019-05-15T11:18:40.860Z,15.50
2019-05-15T11:21:11.938Z,15.30
2019-05-15T11:23:49.335Z,15.40
2019-05-15T11:26:20.475Z,15.50
2019-05-15T11:28:50.444Z,15.60
2019-05-15T11:31:20.574Z,15.60
2019-05-15T11:33:51.760Z,15.50
2019-05-15T11:36:21.326Z,15.30
2019-05-15T11:38:51.544Z,15.30
2019-05-15T11:41:21.062Z,15.30
2019-05-15T11:43:50.536Z,15.40
2019-05-15T11:46:20.021Z,15.50
2019-05-15T11:48:50.002Z,15.60
2019-05-15T11:55:22.873Z,15.80
2019-05-15T11:57:55.628Z,15.80
2019-05-15T12:00:34.595Z,15.70
2019-05-15T12:03:49.588Z,15.80
2019-05-15T12:06:21.942Z,16.00
2019-05-15T12:08:48.249Z,16.10
2019-05-15T12:11:31.115Z,16.20
2019-05-15T12:13:49.323Z,16.10
2019-05-15T12:19:35.257Z,16.00
2019-05-15T12:22:04.895Z,16.00
2019-05-15T12:24:36.861Z,15.90
2019-05-15T12:27:15.331Z,15.90
2019-05-15T12:29:39.838Z,15.80
2019-05-15T12:32:25.172Z,15.90
2019-05-15T12:34:39.653Z,15.90
2019-05-15T12:37:59.161Z,16.20
2019-05-15T12:39:44.814Z,16.40
2019-05-15T12:59:54.439Z,15.90
2019-05-15T13:02:24.077Z,16.00
2019-05-15T13:04:53.640Z,16.00
2019-05-15T13:07:23.257Z,16.10
2019-05-15T13:09:52.829Z,15.90
2019-05-15T13:12:22.503Z,16.20
2019-05-15T13:14:52.218Z,16.50
2019-05-15T13:17:21.777Z,16.80
2019-05-15T13:19:51.296Z,16.90
2019-05-15T13:22:24.682Z,17.30
2019-05-15T13:24:52.334Z,17.50
2019-05-15T13:27:21.992Z,17.70
2019-05-15T13:29:51.570Z,17.70
2019-05-15T13:32:21.268Z,17.70
2019-05-15T13:34:51.490Z,17.30
2019-05-15T13:37:27.322Z,17.30
2019-05-15T13:39:52.281Z,17.40
2019-05-15T13:42:21.761Z,17.10
2019-05-15T13:44:52.260Z,16.90
2019-05-15T13:47:21.808Z,16.90
2019-05-15T13:49:51.438Z,16.90
2019-05-15T13:52:21.183Z,17.10
2019-05-15T13:54:50.764Z,17.20
2019-05-15T13:57:42.205Z,17.50
2019-05-15T14:00:12.126Z,17.60
2019-05-15T14:02:41.772Z,17.60
2019-05-15T14:05:11.794Z,17.70
2019-05-15T14:07:49.403Z,17.60
2019-05-15T14:10:13.279Z,17.40
2019-05-15T14:12:42.910Z,17.40
2019-05-15T14:15:12.732Z,17.30
2019-05-15T14:17:42.412Z,17.30
2019-05-15T14:20:12.166Z,17.40
2019-05-15T14:22:41.804Z,17.30
2019-05-15T14:25:11.504Z,17.00
2019-05-15T14:27:41.264Z,16.90
2019-05-15T14:30:12.059Z,16.90
2019-05-15T14:32:42.051Z,16.80
2019-05-15T14:35:11.805Z,16.50
2019-05-15T14:37:41.596Z,16.30
2019-05-15T14:40:13.602Z,16.30
2019-05-15T14:42:43.143Z,16.60
2019-05-15T14:45:13.440Z,16.90
2019-05-15T14:47:43.008Z,17.10
2019-05-15T14:50:12.798Z,17.10
2019-05-15T14:52:42.329Z,17.10
2019-05-15T14:55:12.688Z,17.00
2019-05-15T14:57:42.167Z,16.90
2019-05-15T15:00:12.233Z,16.60
2019-05-15T15:02:42.366Z,16.60
2019-05-15T15:05:12.038Z,16.60
2019-05-15T15:07:42.093Z,16.30
2019-05-15T15:10:11.880Z,16.30
2019-05-15T15:12:41.513Z,16.40
2019-05-15T15:15:11.984Z,16.90
2019-05-15T15:17:42.034Z,16.90
2019-05-15T15:20:34.102Z,17.30
2019-05-15T15:23:04.468Z,17.30
2019-05-15T15:25:58.364Z,17.00
2019-05-15T15:28:28.097Z,16.90
2019-05-15T15:30:58.325Z,16.60
2019-05-15T15:33:35.117Z,16.50
2019-05-15T15:36:28.580Z,16.40
2019-05-15T15:40:49.258Z,16.20
2019-05-15T15:43:19.979Z,15.90
2019-05-15T15:45:49.626Z,15.70
2019-05-15T15:48:19.475Z,15.80
2019-05-15T15:50:54.138Z,16.00
2019-05-15T15:53:23.640Z,16.20
2019-05-15T15:55:53.208Z,16.10
2019-05-15T15:58:22.971Z,16.30
2019-05-15T16:00:52.605Z,16.40
2019-05-15T16:03:28.701Z,16.60
2019-05-15T16:05:58.357Z,16.70
2019-05-15T16:08:28.644Z,16.80
2019-05-15T16:10:59.104Z,16.90
2019-05-15T16:13:29.357Z,17.30
2019-05-15T16:15:59.424Z,17.40
2019-05-15T16:18:29.114Z,17.50
2019-05-15T16:20:58.909Z,17.30
2019-05-15T16:23:29.194Z,17.10
2019-05-15T16:26:01.738Z,16.70
2019-05-15T16:28:34.899Z,16.50
2019-05-15T16:31:04.452Z,16.20
2019-05-15T16:33:40.960Z,16.10
2019-05-15T16:36:10.953Z,15.90
2019-05-15T16:38:40.489Z,15.80
2019-05-15T16:41:10.844Z,15.70
2019-05-15T16:43:42.713Z,15.90
2019-05-15T16:46:19.029Z,16.20
2019-05-15T16:48:50.634Z,16.30
2019-05-15T16:51:20.415Z,16.60
2019-05-15T16:53:49.966Z,17.10
2019-05-15T16:56:19.583Z,17.20
2019-05-15T16:58:49.088Z,17.30
2019-05-15T17:01:18.868Z,17.50
2019-05-15T17:03:48.686Z,17.50
2019-05-15T17:06:18.784Z,17.60
2019-05-15T17:08:48.867Z,18.10
2019-05-15T17:11:58.136Z,18.60
2019-05-15T17:14:29.027Z,19.10
2019-05-15T17:16:58.841Z,18.70
2019-05-15T17:19:29.371Z,18.30
2019-05-15T17:21:59.067Z,17.90
2019-05-15T17:24:28.797Z,17.30
2019-05-15T17:27:13.455Z,17.00
2019-05-15T17:29:43.493Z,16.60
2019-05-15T17:32:15.289Z,16.20
2019-05-15T17:34:45.875Z,16.50
2019-05-15T17:40:37.791Z,17.50
2019-05-15T17:43:38.884Z,17.60
2019-05-15T17:49:06.728Z,17.40
2019-05-15T17:51:50.913Z,17.20
2019-05-15T17:54:20.628Z,17.30
2019-05-15T17:56:50.254Z,17.50
2019-05-15T17:59:19.974Z,18.00
2019-05-15T18:01:49.870Z,17.80
2019-05-15T18:04:20.004Z,17.50
2019-05-15T18:06:49.649Z,17.30
2019-05-15T18:09:19.506Z,16.90
2019-05-15T18:11:49.217Z,16.40
2019-05-15T18:14:18.793Z,16.10
2019-05-15T18:16:50.808Z,15.80
2019-05-15T18:19:20.214Z,15.60
2019-05-15T18:21:50.010Z,15.40
2019-05-15T18:24:19.546Z,15.30
2019-05-15T18:26:49.078Z,15.10
2019-05-15T18:29:18.816Z,15.00
2019-05-15T18:31:49.350Z,15.00
2019-05-15T18:34:18.995Z,15.10
2019-05-15T18:36:48.647Z,15.10
2019-05-15T18:39:18.188Z,15.10
2019-05-15T18:41:48.534Z,15.00
2019-05-15T18:44:18.900Z,15.00
2019-05-15T18:46:58.259Z,14.90
2019-05-15T18:49:39.887Z,14.80
2019-05-15T18:52:09.476Z,14.80
2019-05-15T18:54:39.182Z,14.80
2019-05-15T18:57:08.898Z,14.80
2019-05-15T18:59:38.583Z,14.70
2019-05-15T19:02:08.199Z,14.80
2019-05-15T19:04:38.322Z,14.80
2019-05-15T19:07:08.845Z,14.80
2019-05-15T19:09:38.722Z,14.60
2019-05-15T19:12:10.443Z,14.50
2019-05-15T19:14:40.158Z,14.50
2019-05-15T19:17:10.058Z,14.60
2019-05-15T19:19:39.768Z,14.60
2019-05-15T19:22:09.343Z,14.40
2019-05-15T19:24:41.240Z,14.40
2019-05-15T19:27:10.761Z,14.40
2019-05-15T19:29:40.387Z,14.20
2019-05-15T19:32:11.124Z,14.20
2019-05-15T19:38:28.691Z,14.10
2019-05-15T19:41:06.111Z,14.10
2019-05-15T19:43:48.838Z,14.10
2019-05-15T19:46:18.620Z,14.10
2019-05-15T19:48:48.941Z,14.10
2019-05-15T19:51:18.645Z,14.10
2019-05-15T19:53:48.257Z,14.00
2019-05-15T19:56:18.854Z,14.10
2019-05-15T19:58:48.953Z,14.00
2019-05-15T20:01:19.027Z,14.00
2019-05-15T20:04:08.568Z,14.00
2019-05-15T20:06:40.214Z,13.90
2019-05-15T20:09:10.515Z,13.90
2019-05-15T20:11:40.090Z,13.80
2019-05-15T20:14:09.774Z,13.70
2019-05-15T20:16:39.594Z,13.60
2019-05-15T20:19:09.447Z,13.50
2019-05-15T20:21:39.334Z,13.40
2019-05-15T20:24:08.865Z,13.30
2019-05-15T20:26:42.680Z,13.20
2019-05-15T20:29:15.497Z,13.10
2019-05-15T20:31:55.898Z,13.10
2019-05-15T20:34:28.541Z,13.10
2019-05-15T20:36:58.732Z,13.10
2019-05-15T20:39:31.752Z,13.00
2019-05-15T20:42:01.272Z,13.00
2019-05-15T20:44:30.794Z,12.90
2019-05-15T20:47:00.331Z,12.90
2019-05-15T20:49:30.273Z,12.70
2019-05-15T20:51:59.748Z,12.60
2019-05-15T20:54:29.275Z,12.50
2019-05-15T20:56:58.798Z,12.60
2019-05-15T20:59:28.479Z,12.60
2019-05-15T21:02:00.340Z,12.30
2019-05-15T21:04:30.514Z,12.30
2019-05-15T21:07:03.143Z,12.20
2019-05-15T21:09:32.696Z,12.10
2019-05-15T21:12:02.169Z,12.10
2019-05-15T21:14:31.835Z,12.10
2019-05-15T21:17:01.446Z,12.10
2019-05-15T21:19:31.778Z,12.10
2019-05-15T21:22:01.312Z,12.00
2019-05-15T21:24:30.945Z,12.10
2019-05-15T21:27:00.606Z,12.00
2019-05-15T21:29:49.506Z,11.90
2019-05-15T21:32:19.788Z,11.90
2019-05-15T21:34:49.892Z,11.90
2019-05-15T21:37:23.325Z,11.80
2019-05-15T21:39:52.976Z,11.90
2019-05-15T21:42:26.870Z,11.90
2019-05-15T21:44:59.386Z,11.80
2019-05-15T21:47:38.609Z,11.80
2019-05-15T21:50:08.380Z,11.80
2019-05-15T21:52:58.231Z,11.80
2019-05-15T21:55:28.852Z,11.70
2019-05-15T21:57:59.967Z,11.60
2019-05-15T22:00:35.362Z,11.50
2019-05-15T22:03:10.992Z,11.50
2019-05-15T22:05:40.661Z,11.40
2019-05-15T22:08:10.322Z,11.40
2019-05-15T22:10:52.819Z,11.40
2019-05-15T22:13:22.492Z,11.40
2019-05-15T22:15:59.504Z,11.40
2019-05-15T22:18:29.186Z,11.40
2019-05-15T22:20:58.703Z,11.40
2019-05-15T22:23:28.380Z,11.50
2019-05-15T22:25:58.424Z,11.40
2019-05-15T22:28:28.345Z,11.40
2019-05-15T22:31:00.526Z,11.40
2019-05-15T22:33:30.276Z,11.30
2019-05-15T22:36:04.571Z,11.40
2019-05-15T22:38:34.110Z,11.40
2019-05-15T22:41:05.114Z,11.30
2019-05-15T22:43:34.634Z,11.40
2019-05-15T22:46:04.326Z,11.30
2019-05-15T22:48:33.802Z,11.20
2019-05-15T22:51:07.374Z,11.20
2019-05-15T22:53:38.274Z,11.10
2019-05-15T22:56:11.094Z,11.10
2019-05-15T22:58:40.698Z,11.00
2019-05-15T23:01:10.118Z,11.00
2019-05-15T23:03:40.194Z,11.10
2019-05-15T23:06:09.706Z,11.10
2019-05-15T23:08:39.331Z,11.00
2019-05-15T23:11:09.497Z,11.00
2019-05-15T23:13:39.160Z,11.10
2019-05-15T23:16:08.700Z,11.20
2019-05-15T23:18:38.139Z,11.10
2019-05-15T23:21:08.858Z,11.10
2019-05-15T23:23:40.139Z,11.00
2019-05-15T23:26:11.905Z,11.00
2019-05-15T23:28:41.656Z,11.10
2019-05-15T23:31:11.507Z,11.10
2019-05-15T23:33:41.091Z,11.10
2019-05-15T23:36:10.591Z,11.10
2019-05-15T23:38:40.632Z,11.00
2019-05-15T23:41:10.126Z,11.00
2019-05-15T23:43:39.578Z,10.90
2019-05-15T23:46:09.089Z,10.90
2019-05-15T23:48:38.533Z,10.90
2019-05-15T23:51:08.658Z,10.90
2019-05-15T23:53:38.206Z,10.90
2019-05-15T23:56:09.361Z,10.90
2019-05-15T23:58:39.037Z,10.80
